sensor_id;sensor_type;location;lat;lon;timestamp;pressure;altitude;pressure_sealevel;temperature;humidity
54994;BME280;40891;47.242;8.648;2023-05-17T00:02:01;96567.53;;;9.49;100.00
54994;BME280;40891;47.242;8.648;2023-05-17T00:04:26;96571.63;;;9.44;100.00
54994;BME280;40891;47.242;8.648;2023-05-17T00:06:51;96567.63;;;9.45;100.00
54994;BME280;40891;47.242;8.648;2023-05-17T00:09:17;96571.63;;;9.44;100.00
54994;BME280;40891;47.242;8.648;2023-05-17T00:11:42;96562.88;;;9.46;100.00
54994;BME280;40891;47.242;8.648;2023-05-17T00:14:07;96565.66;;;9.46;100.00
54994;BME280;40891;47.242;8.648;2023-05-17T00:16:32;96568.50;;;9.42;100.00
54994;BME280;40891;47.242;8.648;2023-05-17T00:18:58;96571.81;;;9.37;100.00
54994;BME280;40891;47.242;8.648;2023-05-17T00:21:24;96567.06;;;9.38;100.00
54994;BME280;40891;47.242;8.648;2023-05-17T00:23:49;96569.06;;;9.37;100.00
54994;BME280;40891;47.242;8.648;2023-05-17T00:26:15;96571.81;;;9.37;100.00
54994;BME280;40891;47.242;8.648;2023-05-17T00:28:40;96562.19;;;9.42;100.00
54994;BME280;40891;47.242;8.648;2023-05-17T00:31:05;96570.28;;;9.49;100.00
54994;BME280;40891;47.242;8.648;2023-05-17T00:33:31;96570.88;;;9.44;100.00
54994;BME280;40891;47.242;8.648;2023-05-17T00:35:56;96571.53;;;9.48;100.00
54994;BME280;40891;47.242;8.648;2023-05-17T00:38:21;96572.97;;;9.52;100.00
54994;BME280;40891;47.242;8.648;2023-05-17T00:40:48;96566.56;;;9.55;100.00
54994;BME280;40891;47.242;8.648;2023-05-17T00:43:14;96568.88;;;9.57;100.00
54994;BME280;40891;47.242;8.648;2023-05-17T00:45:39;96572.97;;;9.52;100.00
54994;BME280;40891;47.242;8.648;2023-05-17T00:48:04;96573.31;;;9.54;100.00
54994;BME280;40891;47.242;8.648;2023-05-17T00:50:30;96570.53;;;9.54;100.00
54994;BME280;40891;47.242;8.648;2023-05-17T00:52:55;96573.22;;;9.58;100.00
54994;BME280;40891;47.242;8.648;2023-05-17T00:55:20;96567.88;;;9.51;100.00
54994;BME280;40891;47.242;8.648;2023-05-17T00:57:46;96570.44;;;9.58;100.00
54994;BME280;40891;47.242;8.648;2023-05-17T01:00:12;96567.44;;;9.52;100.00
54994;BME280;40891;47.242;8.648;2023-05-17T01:02:37;96563.88;;;9.52;100.00
54994;BME280;40891;47.242;8.648;2023-05-17T01:05:03;96569.53;;;9.61;100.00
54994;BME280;40891;47.242;8.648;2023-05-17T01:07:29;96561.75;;;9.56;100.00
54994;BME280;40891;47.242;8.648;2023-05-17T01:09:54;96567.88;;;9.51;100.00
54994;BME280;40891;47.242;8.648;2023-05-17T01:12:37;96562.09;;;9.45;100.00
54994;BME280;40891;47.242;8.648;2023-05-17T01:15:22;96568.31;;;9.49;100.00
54994;BME280;40891;47.242;8.648;2023-05-17T01:20:51;96571.63;;;9.44;100.00
54994;BME280;40891;47.242;8.648;2023-05-17T01:23:30;96581.06;;;9.47;100.00
54994;BME280;40891;47.242;8.648;2023-05-17T01:26:09;96576.31;;;9.47;100.00
54994;BME280;40891;47.242;8.648;2023-05-17T01:28:38;96577.63;;;9.43;100.00
54994;BME280;40891;47.242;8.648;2023-05-17T01:31:07;96581.97;;;9.44;100.00
54994;BME280;40891;47.242;8.648;2023-05-17T01:33:32;96577.97;;;9.45;100.00
54994;BME280;40891;47.242;8.648;2023-05-17T01:35:58;96572.41;;;9.45;100.00
54994;BME280;40891;47.242;8.648;2023-05-17T01:38:23;96583.63;;;9.41;100.00
54994;BME280;40891;47.242;8.648;2023-05-17T01:41:16;96586.03;;;9.39;100.00
54994;BME280;40891;47.242;8.648;2023-05-17T01:43:50;96584.16;;;9.36;100.00
54994;BME280;40891;47.242;8.648;2023-05-17T01:46:23;96590.03;;;9.38;100.00
54994;BME280;40891;47.242;8.648;2023-05-17T01:51:32;96588.47;;;9.37;100.00
54994;BME280;40891;47.242;8.648;2023-05-17T01:54:01;96587.47;;;9.31;100.00
54994;BME280;40891;47.242;8.648;2023-05-17T01:56:33;96581.28;;;9.40;100.00
54994;BME280;40891;47.242;8.648;2023-05-17T01:58:59;96581.59;;;9.42;100.00
54994;BME280;40891;47.242;8.648;2023-05-17T02:01:27;96584.94;;;9.37;100.00
54994;BME280;40891;47.242;8.648;2023-05-17T02:03:54;96587.16;;;9.42;100.00
54994;BME280;40891;47.242;8.648;2023-05-17T02:06:20;96589.47;;;9.31;100.00
54994;BME280;40891;47.242;8.648;2023-05-17T02:08:45;96591.22;;;9.25;100.00
54994;BME280;40891;47.242;8.648;2023-05-17T02:11:10;96594.09;;;9.21;100.00
54994;BME280;40891;47.242;8.648;2023-05-17T02:13:36;96591.22;;;9.25;100.00
54994;BME280;40891;47.242;8.648;2023-05-17T02:16:02;96589.22;;;9.25;100.00
54994;BME280;40891;47.242;8.648;2023-05-17T02:18:28;96591.03;;;9.32;100.00
54994;BME280;40891;47.242;8.648;2023-05-17T02:20:53;96591.97;;;9.25;100.00
54994;BME280;40891;47.242;8.648;2023-05-17T02:23:19;96588.78;;;9.27;100.00
54994;BME280;40891;47.242;8.648;2023-05-17T02:25:44;96594.00;;;9.25;100.00
54994;BME280;40891;47.242;8.648;2023-05-17T02:28:09;96594.44;;;9.23;100.00
54994;BME280;40891;47.242;8.648;2023-05-17T02:30:36;96599.97;;;9.23;100.00
54994;BME280;40891;47.242;8.648;2023-05-17T02:33:05;96602.22;;;9.28;100.00
54994;BME280;40891;47.242;8.648;2023-05-17T02:35:30;96590.44;;;9.24;100.00
54994;BME280;40891;47.242;8.648;2023-05-17T02:37:56;96596.34;;;9.26;100.00
54994;BME280;40891;47.242;8.648;2023-05-17T02:40:21;96588.00;;;9.26;100.00
54994;BME280;40891;47.242;8.648;2023-05-17T02:42:46;96587.75;;;9.21;100.00
54994;BME280;40891;47.242;8.648;2023-05-17T02:45:12;96587.00;;;9.20;100.00
54994;BME280;40891;47.242;8.648;2023-05-17T02:47:37;96584.38;;;9.29;100.00
54994;BME280;40891;47.242;8.648;2023-05-17T02:50:03;96580.03;;;9.28;100.00
54994;BME280;40891;47.242;8.648;2023-05-17T02:52:28;96582.91;;;9.25;100.00
54994;BME280;40891;47.242;8.648;2023-05-17T02:54:53;96581.78;;;9.22;100.00
54994;BME280;40891;47.242;8.648;2023-05-17T02:57:19;96579.88;;;9.19;100.00
54994;BME280;40891;47.242;8.648;2023-05-17T02:59:44;96593.84;;;9.16;100.00
54994;BME280;40891;47.242;8.648;2023-05-17T03:02:09;96588.66;;;9.18;100.00
54994;BME280;40891;47.242;8.648;2023-05-17T03:04:35;96596.34;;;9.26;100.00
54994;BME280;40891;47.242;8.648;2023-05-17T03:07:00;96595.88;;;9.28;100.00
54994;BME280;40891;47.242;8.648;2023-05-17T03:09:26;96598.78;;;9.24;100.00
54994;BME280;40891;47.242;8.648;2023-05-17T03:11:53;96597.53;;;9.25;100.00
54994;BME280;40891;47.242;8.648;2023-05-17T03:14:19;96601.44;;;9.28;100.00
54994;BME280;40891;47.242;8.648;2023-05-17T03:16:45;96597.19;;;9.23;100.00
54994;BME280;40891;47.242;8.648;2023-05-17T03:19:10;96603.19;;;9.22;100.00
54994;BME280;40891;47.242;8.648;2023-05-17T03:21:35;96612.06;;;9.17;99.70
54994;BME280;40891;47.242;8.648;2023-05-17T03:24:01;96611.97;;;9.20;100.00
54994;BME280;40891;47.242;8.648;2023-05-17T03:26:26;96613.50;;;9.21;98.35
54994;BME280;40891;47.242;8.648;2023-05-17T03:28:52;96603.19;;;9.22;97.45
54994;BME280;40891;47.242;8.648;2023-05-17T03:31:17;96610.19;;;9.26;98.49
54994;BME280;40891;47.242;8.648;2023-05-17T03:33:43;96627.28;;;9.25;97.13
54994;BME280;40891;47.242;8.648;2023-05-17T03:36:08;96622.88;;;9.27;97.27
54994;BME280;40891;47.242;8.648;2023-05-17T03:38:33;96625.97;;;9.29;96.09
54994;BME280;40891;47.242;8.648;2023-05-17T03:41:00;96630.63;;;9.32;95.67
54994;BME280;40891;47.242;8.648;2023-05-17T03:43:25;96629.53;;;9.30;95.91
54994;BME280;40891;47.242;8.648;2023-05-17T03:45:50;96633.06;;;9.30;96.27
54994;BME280;40891;47.242;8.648;2023-05-17T03:48:16;96635.50;;;9.28;96.90
54994;BME280;40891;47.242;8.648;2023-05-17T03:50:41;96627.53;;;9.30;97.08
54994;BME280;40891;47.242;8.648;2023-05-17T03:53:07;96630.06;;;9.25;93.61
54994;BME280;40891;47.242;8.648;2023-05-17T03:55:33;96635.69;;;9.21;90.46
54994;BME280;40891;47.242;8.648;2023-05-17T03:57:58;96632.47;;;9.23;90.51
54994;BME280;40891;47.242;8.648;2023-05-17T04:00:23;96637.94;;;9.26;91.16
54994;BME280;40891;47.242;8.648;2023-05-17T04:02:50;96634.03;;;9.24;89.63
54994;BME280;40891;47.242;8.648;2023-05-17T04:05:16;96636.03;;;9.23;89.31
54994;BME280;40891;47.242;8.648;2023-05-17T04:07:42;96640.28;;;9.28;89.77
54994;BME280;40891;47.242;8.648;2023-05-17T04:10:08;96642.28;;;9.27;91.05
54994;BME280;40891;47.242;8.648;2023-05-17T04:12:33;96642.38;;;9.24;92.48
54994;BME280;40891;47.242;8.648;2023-05-17T04:14:59;96637.28;;;9.22;91.58
54994;BME280;40891;47.242;8.648;2023-05-17T04:17:26;96638.59;;;9.18;91.65
54994;BME280;40891;47.242;8.648;2023-05-17T04:19:51;96640.56;;;9.17;93.37
54994;BME280;40891;47.242;8.648;2023-05-17T04:22:16;96637.47;;;9.15;92.00
54994;BME280;40891;47.242;8.648;2023-05-17T04:24:42;96636.56;;;9.18;93.86
54994;BME280;40891;47.242;8.648;2023-05-17T04:27:07;96633.44;;;9.16;89.70
54994;BME280;40891;47.242;8.648;2023-05-17T04:29:32;96628.69;;;9.17;92.62
54994;BME280;40891;47.242;8.648;2023-05-17T04:31:58;96631.81;;;9.19;91.87
54994;BME280;40891;47.242;8.648;2023-05-17T04:34:23;96637.81;;;9.17;91.42
54994;BME280;40891;47.242;8.648;2023-05-17T04:36:49;96636.50;;;9.22;91.43
54994;BME280;40891;47.242;8.648;2023-05-17T04:39:14;96638.91;;;9.20;90.92
54994;BME280;40891;47.242;8.648;2023-05-17T04:41:40;96647.47;;;9.25;89.89
54994;BME280;40891;47.242;8.648;2023-05-17T04:44:05;96640.38;;;9.24;89.63
54994;BME280;40891;47.242;8.648;2023-05-17T04:46:31;96643.50;;;9.26;90.05
54994;BME280;40891;47.242;8.648;2023-05-17T04:48:57;96648.59;;;9.28;90.41
54994;BME280;40891;47.242;8.648;2023-05-17T04:51:22;96648.97;;;9.30;91.37
54994;BME280;40891;47.242;8.648;2023-05-17T04:53:48;96653.72;;;9.29;89.78
54994;BME280;40891;47.242;8.648;2023-05-17T04:56:14;96648.84;;;9.33;89.50
54994;BME280;40891;47.242;8.648;2023-05-17T04:58:39;96646.84;;;9.34;89.73
54994;BME280;40891;47.242;8.648;2023-05-17T05:01:05;96646.53;;;9.32;89.10
54994;BME280;40891;47.242;8.648;2023-05-17T05:03:30;96648.41;;;9.35;86.75
54994;BME280;40891;47.242;8.648;2023-05-17T05:05:56;96652.22;;;9.41;85.89
54994;BME280;40891;47.242;8.648;2023-05-17T05:08:21;96660.09;;;9.42;87.02
54994;BME280;40891;47.242;8.648;2023-05-17T05:10:46;96660.53;;;9.41;88.39
54994;BME280;40891;47.242;8.648;2023-05-17T05:13:11;96670.97;;;9.37;87.29
54994;BME280;40891;47.242;8.648;2023-05-17T05:15:37;96666.97;;;9.38;91.20
54994;BME280;40891;47.242;8.648;2023-05-17T05:18:02;96674.06;;;9.39;88.59
54994;BME280;40891;47.242;8.648;2023-05-17T05:20:28;96674.94;;;9.36;87.98
54994;BME280;40891;47.242;8.648;2023-05-17T05:22:53;96670.78;;;9.44;86.96
54994;BME280;40891;47.242;8.648;2023-05-17T05:25:19;96673.63;;;9.40;85.53
54994;BME280;40891;47.242;8.648;2023-05-17T05:27:44;96674.41;;;9.41;87.43
54994;BME280;40891;47.242;8.648;2023-05-17T05:30:10;96680.88;;;9.50;85.80
54994;BME280;40891;47.242;8.648;2023-05-17T05:32:35;96679.31;;;9.49;87.28
54994;BME280;40891;47.242;8.648;2023-05-17T05:35:02;96681.22;;;9.52;86.90
54994;BME280;40891;47.242;8.648;2023-05-17T05:37:28;96677.78;;;9.48;85.80
54994;BME280;40891;47.242;8.648;2023-05-17T05:39:53;96680.00;;;9.53;86.01
54994;BME280;40891;47.242;8.648;2023-05-17T05:42:19;96683.59;;;9.67;85.18
54994;BME280;40891;47.242;8.648;2023-05-17T05:44:44;96682.94;;;9.63;85.13
54994;BME280;40891;47.242;8.648;2023-05-17T05:47:10;96677.38;;;9.63;85.47
54994;BME280;40891;47.242;8.648;2023-05-17T05:49:35;96682.03;;;9.66;86.05
54994;BME280;40891;47.242;8.648;2023-05-17T05:52:00;96675.94;;;9.71;84.35
54994;BME280;40891;47.242;8.648;2023-05-17T05:54:26;96679.50;;;9.71;85.49
54994;BME280;40891;47.242;8.648;2023-05-17T05:56:51;96677.75;;;9.77;84.43
54994;BME280;40891;47.242;8.648;2023-05-17T05:59:16;96685.31;;;9.77;84.21
54994;BME280;40891;47.242;8.648;2023-05-17T06:01:42;96692.41;;;9.78;81.67
54994;BME280;40891;47.242;8.648;2023-05-17T06:04:08;96691.41;;;9.72;82.14
54994;BME280;40891;47.242;8.648;2023-05-17T06:06:33;96694.50;;;9.74;80.87
54994;BME280;40891;47.242;8.648;2023-05-17T06:08:59;96691.19;;;9.79;82.07
54994;BME280;40891;47.242;8.648;2023-05-17T06:11:25;96695.19;;;9.78;82.57
54994;BME280;40891;47.242;8.648;2023-05-17T06:13:50;96698.53;;;9.85;81.60
54994;BME280;40891;47.242;8.648;2023-05-17T06:16:15;96705.56;;;9.90;81.42
54994;BME280;40891;47.242;8.648;2023-05-17T06:18:41;96704.09;;;9.85;81.00
54994;BME280;40891;47.242;8.648;2023-05-17T06:21:06;96701.13;;;9.92;80.40
54994;BME280;40891;47.242;8.648;2023-05-17T06:23:31;96697.59;;;10.04;80.43
54994;BME280;40891;47.242;8.648;2023-05-17T06:25:57;96703.81;;;10.08;80.08
54994;BME280;40891;47.242;8.648;2023-05-17T06:28:22;96700.53;;;10.13;79.35
54994;BME280;40891;47.242;8.648;2023-05-17T06:30:47;96706.44;;;10.28;80.18
54994;BME280;40891;47.242;8.648;2023-05-17T06:33:13;96707.09;;;10.19;78.59
54994;BME280;40891;47.242;8.648;2023-05-17T06:35:38;96714.44;;;10.26;79.43
54994;BME280;40891;47.242;8.648;2023-05-17T06:38:04;96711.13;;;10.31;79.62
54994;BME280;40891;47.242;8.648;2023-05-17T06:40:29;96711.00;;;10.35;78.97
54994;BME280;40891;47.242;8.648;2023-05-17T06:42:54;96720.13;;;10.35;78.38
54994;BME280;40891;47.242;8.648;2023-05-17T06:45:20;96721.13;;;10.41;78.87
54994;BME280;40891;47.242;8.648;2023-05-17T06:47:46;96717.69;;;10.37;78.85
54994;BME280;40891;47.242;8.648;2023-05-17T06:50:11;96719.44;;;10.44;77.06
54994;BME280;40891;47.242;8.648;2023-05-17T06:52:36;96709.13;;;10.57;77.58
54994;BME280;40891;47.242;8.648;2023-05-17T06:55:02;96720.59;;;10.59;78.32
54994;BME280;40891;47.242;8.648;2023-05-17T06:57:27;96720.16;;;10.73;78.56
54994;BME280;40891;47.242;8.648;2023-05-17T06:59:53;96717.13;;;10.80;75.64
54994;BME280;40891;47.242;8.648;2023-05-17T07:02:18;96712.34;;;10.93;75.87
54994;BME280;40891;47.242;8.648;2023-05-17T07:04:44;96717.22;;;11.02;75.45
54994;BME280;40891;47.242;8.648;2023-05-17T07:07:09;96720.09;;;11.11;75.76
54994;BME280;40891;47.242;8.648;2023-05-17T07:09:35;96719.09;;;11.17;76.44
54994;BME280;40891;47.242;8.648;2023-05-17T07:12:01;96727.66;;;11.23;75.18
54994;BME280;40891;47.242;8.648;2023-05-17T07:14:26;96729.41;;;11.29;75.66
54994;BME280;40891;47.242;8.648;2023-05-17T07:16:52;96730.28;;;11.39;75.60
54994;BME280;40891;47.242;8.648;2023-05-17T07:19:17;96738.41;;;11.46;75.51
54994;BME280;40891;47.242;8.648;2023-05-17T07:21:43;96733.91;;;11.61;73.57
54994;BME280;40891;47.242;8.648;2023-05-17T07:24:08;96735.78;;;11.64;72.60
54994;BME280;40891;47.242;8.648;2023-05-17T07:26:34;96734.97;;;11.76;72.75
54994;BME280;40891;47.242;8.648;2023-05-17T07:28:59;96737.50;;;11.83;74.92
54994;BME280;40891;47.242;8.648;2023-05-17T07:31:24;96740.97;;;11.87;72.44
54994;BME280;40891;47.242;8.648;2023-05-17T07:33:50;96735.56;;;11.93;73.27
54994;BME280;40891;47.242;8.648;2023-05-17T07:36:15;96744.91;;;11.99;73.36
54994;BME280;40891;47.242;8.648;2023-05-17T07:38:40;96737.66;;;12.01;72.63
54994;BME280;40891;47.242;8.648;2023-05-17T07:41:06;96737.00;;;11.97;71.62
54994;BME280;40891;47.242;8.648;2023-05-17T07:43:36;96747.13;;;12.04;73.10
54994;BME280;40891;47.242;8.648;2023-05-17T07:46:02;96739.25;;;12.11;72.01
54994;BME280;40891;47.242;8.648;2023-05-17T07:48:28;96746.03;;;12.01;72.14
54994;BME280;40891;47.242;8.648;2023-05-17T07:50:53;96747.56;;;12.02;72.67
54994;BME280;40891;47.242;8.648;2023-05-17T07:53:18;96744.41;;;12.13;71.30
54994;BME280;40891;47.242;8.648;2023-05-17T07:55:44;96741.47;;;12.16;71.41
54994;BME280;40891;47.242;8.648;2023-05-17T07:58:09;96747.03;;;12.16;71.69
54994;BME280;40891;47.242;8.648;2023-05-17T08:00:36;96752.50;;;12.20;69.57
54994;BME280;40891;47.242;8.648;2023-05-17T08:03:01;96746.66;;;12.27;69.05
54994;BME280;40891;47.242;8.648;2023-05-17T08:05:26;96758.09;;;12.20;71.24
54994;BME280;40891;47.242;8.648;2023-05-17T08:07:51;96751.72;;;12.19;71.32
54994;BME280;40891;47.242;8.648;2023-05-17T08:10:17;96764.13;;;12.18;70.94
54994;BME280;40891;47.242;8.648;2023-05-17T08:12:43;96759.88;;;12.14;70.77
54994;BME280;40891;47.242;8.648;2023-05-17T08:15:08;96765.06;;;12.03;71.10
54994;BME280;40891;47.242;8.648;2023-05-17T08:17:34;96764.50;;;12.08;71.24
54994;BME280;40891;47.242;8.648;2023-05-17T08:19:59;96767.75;;;12.06;70.34
54994;BME280;40891;47.242;8.648;2023-05-17T08:22:24;96770.72;;;12.12;71.21
54994;BME280;40891;47.242;8.648;2023-05-17T08:24:50;96779.66;;;12.28;71.60
54994;BME280;40891;47.242;8.648;2023-05-17T08:27:15;96778.16;;;12.15;69.96
54994;BME280;40891;47.242;8.648;2023-05-17T08:29:41;96773.50;;;12.34;70.32
54994;BME280;40891;47.242;8.648;2023-05-17T08:32:06;96764.44;;;12.42;68.95
54994;BME280;40891;47.242;8.648;2023-05-17T08:34:31;96766.22;;;12.58;66.83
54994;BME280;40891;47.242;8.648;2023-05-17T08:36:57;96774.78;;;12.63;67.22
54994;BME280;40891;47.242;8.648;2023-05-17T08:39:22;96774.78;;;12.63;68.91
54994;BME280;40891;47.242;8.648;2023-05-17T08:41:47;96774.13;;;12.90;67.52
54994;BME280;40891;47.242;8.648;2023-05-17T08:44:14;96777.84;;;13.18;67.47
54994;BME280;40891;47.242;8.648;2023-05-17T08:46:41;96764.59;;;13.58;64.81
54994;BME280;40891;47.242;8.648;2023-05-17T08:49:08;96764.13;;;13.69;63.48
54994;BME280;40891;47.242;8.648;2023-05-17T08:51:37;96758.88;;;13.98;63.27
54994;BME280;40891;47.242;8.648;2023-05-17T08:54:03;96760.72;;;14.01;63.83
54994;BME280;40891;47.242;8.648;2023-05-17T08:56:30;96753.28;;;14.16;63.25
54994;BME280;40891;47.242;8.648;2023-05-17T08:58:56;96761.06;;;14.30;62.85
54994;BME280;40891;47.242;8.648;2023-05-17T09:01:23;96759.66;;;14.53;61.85
54994;BME280;40891;47.242;8.648;2023-05-17T09:03:48;96750.38;;;14.79;60.71
54994;BME280;40891;47.242;8.648;2023-05-17T09:06:19;96760.97;;;14.75;59.87
54994;BME280;40891;47.242;8.648;2023-05-17T09:08:46;96751.47;;;14.82;59.41
54994;BME280;40891;47.242;8.648;2023-05-17T09:11:11;96768.00;;;14.71;61.26
54994;BME280;40891;47.242;8.648;2023-05-17T09:13:36;96757.06;;;14.82;60.08
54994;BME280;40891;47.242;8.648;2023-05-17T09:16:11;96762.25;;;14.65;60.36
54994;BME280;40891;47.242;8.648;2023-05-17T09:18:36;96766.09;;;14.77;58.51
54994;BME280;40891;47.242;8.648;2023-05-17T09:21:02;96767.47;;;14.90;57.68
54994;BME280;40891;47.242;8.648;2023-05-17T09:23:30;96757.25;;;15.44;57.35
54994;BME280;40891;47.242;8.648;2023-05-17T09:26:06;96758.38;;;15.46;57.36
54994;BME280;40891;47.242;8.648;2023-05-17T09:28:41;96749.44;;;15.95;55.25
54994;BME280;40891;47.242;8.648;2023-05-17T09:31:07;96750.34;;;16.40;55.72
54994;BME280;40891;47.242;8.648;2023-05-17T09:33:34;96747.44;;;16.78;54.43
54994;BME280;40891;47.242;8.648;2023-05-17T09:36:00;96756.13;;;17.09;53.54
54994;BME280;40891;47.242;8.648;2023-05-17T09:38:26;96751.28;;;17.24;49.49
54994;BME280;40891;47.242;8.648;2023-05-17T09:40:52;96758.66;;;17.07;49.93
54994;BME280;40891;47.242;8.648;2023-05-17T09:43:22;96758.50;;;17.45;51.01
54994;BME280;40891;47.242;8.648;2023-05-17T09:45:57;96753.06;;;17.42;48.05
54994;BME280;40891;47.242;8.648;2023-05-17T09:48:24;96751.56;;;17.61;48.84
54994;BME280;40891;47.242;8.648;2023-05-17T09:50:50;96758.78;;;17.47;48.22
54994;BME280;40891;47.242;8.648;2023-05-17T09:53:26;96763.72;;;17.18;49.50
54994;BME280;40891;47.242;8.648;2023-05-17T09:55:53;96768.75;;;16.99;48.29
54994;BME280;40891;47.242;8.648;2023-05-17T09:58:20;96775.81;;;16.94;49.78
54994;BME280;40891;47.242;8.648;2023-05-17T10:00:50;96769.06;;;16.86;48.45
54994;BME280;40891;47.242;8.648;2023-05-17T10:03:16;96772.16;;;16.74;50.62
54994;BME280;40891;47.242;8.648;2023-05-17T10:05:43;96770.69;;;16.64;51.02
54994;BME280;40891;47.242;8.648;2023-05-17T10:08:12;96768.56;;;16.73;50.65
54994;BME280;40891;47.242;8.648;2023-05-17T10:10:39;96771.47;;;16.79;49.58
54994;BME280;40891;47.242;8.648;2023-05-17T10:13:08;96772.03;;;16.68;50.41
54994;BME280;40891;47.242;8.648;2023-05-17T10:15:34;96770.66;;;16.49;48.34
54994;BME280;40891;47.242;8.648;2023-05-17T10:18:00;96762.75;;;16.62;50.76
54994;BME280;40891;47.242;8.648;2023-05-17T10:20:27;96767.34;;;16.36;50.20
54994;BME280;40891;47.242;8.648;2023-05-17T10:22:53;96770.03;;;16.30;49.62
54994;BME280;40891;47.242;8.648;2023-05-17T10:25:20;96773.50;;;16.11;48.29
54994;BME280;40891;47.242;8.648;2023-05-17T10:27:48;96782.00;;;15.78;48.77
54994;BME280;40891;47.242;8.648;2023-05-17T10:30:15;96777.78;;;15.50;47.35
54994;BME280;40891;47.242;8.648;2023-05-17T10:32:44;96784.97;;;15.51;47.83
54994;BME280;40891;47.242;8.648;2023-05-17T10:35:13;96780.63;;;15.41;49.03
54994;BME280;40891;47.242;8.648;2023-05-17T10:37:39;96779.47;;;15.24;48.86
54994;BME280;40891;47.242;8.648;2023-05-17T10:40:06;96773.88;;;15.24;49.27
54994;BME280;40891;47.242;8.648;2023-05-17T10:42:39;96774.41;;;15.46;50.23
54994;BME280;40891;47.242;8.648;2023-05-17T10:45:05;96771.66;;;15.28;50.82
54994;BME280;40891;47.242;8.648;2023-05-17T10:47:31;96778.41;;;15.21;50.65
54994;BME280;40891;47.242;8.648;2023-05-17T10:49:57;96781.53;;;15.14;50.13
54994;BME280;40891;47.242;8.648;2023-05-17T10:52:23;96778.59;;;15.09;50.90
54994;BME280;40891;47.242;8.648;2023-05-17T10:54:49;96781.06;;;15.16;52.55
54994;BME280;40891;47.242;8.648;2023-05-17T10:59:57;96774.22;;;15.08;52.50
54994;BME280;40891;47.242;8.648;2023-05-17T11:02:24;96768.13;;;14.76;52.84
54994;BME280;40891;47.242;8.648;2023-05-17T11:04:50;96782.13;;;14.67;53.41
54994;BME280;40891;47.242;8.648;2023-05-17T11:07:25;96769.88;;;14.56;54.51
54994;BME280;40891;47.242;8.648;2023-05-17T11:09:52;96771.31;;;14.42;54.33
54994;BME280;40891;47.242;8.648;2023-05-17T11:12:44;96773.47;;;14.29;54.69
54994;BME280;40891;47.242;8.648;2023-05-17T11:15:14;96768.50;;;14.06;55.75
54994;BME280;40891;47.242;8.648;2023-05-17T11:20:28;96765.53;;;13.64;56.88
54994;BME280;40891;47.242;8.648;2023-05-17T11:23:05;96774.03;;;13.51;57.94
54994;BME280;40891;47.242;8.648;2023-05-17T11:25:38;96771.84;;;13.37;60.64
54994;BME280;40891;47.242;8.648;2023-05-17T11:28:20;96776.47;;;13.22;58.82
54994;BME280;40891;47.242;8.648;2023-05-17T11:30:46;96774.13;;;13.21;58.37
54994;BME280;40891;47.242;8.648;2023-05-17T11:33:16;96779.25;;;13.22;60.54
54994;BME280;40891;47.242;8.648;2023-05-17T11:35:43;96783.75;;;13.20;61.51
54994;BME280;40891;47.242;8.648;2023-05-17T11:38:22;96781.56;;;13.15;62.27
54994;BME280;40891;47.242;8.648;2023-05-17T11:40:52;96778.72;;;13.06;58.21
54994;BME280;40891;47.242;8.648;2023-05-17T11:43:20;96779.59;;;13.03;59.69
54994;BME280;40891;47.242;8.648;2023-05-17T11:45:56;96766.72;;;12.96;61.46
54994;BME280;40891;47.242;8.648;2023-05-17T11:48:23;96780.16;;;12.88;62.24
54994;BME280;40891;47.242;8.648;2023-05-17T11:50:51;96768.38;;;12.84;62.12
54994;BME280;40891;47.242;8.648;2023-05-17T11:53:17;96772.06;;;12.81;62.25
54994;BME280;40891;47.242;8.648;2023-05-17T11:55:45;96770.69;;;12.86;60.26
54994;BME280;40891;47.242;8.648;2023-05-17T11:58:14;96765.75;;;12.90;60.34
54994;BME280;40891;47.242;8.648;2023-05-17T12:00:40;96775.41;;;12.98;60.51
54994;BME280;40891;47.242;8.648;2023-05-17T12:03:20;96782.72;;;13.05;59.28
54994;BME280;40891;47.242;8.648;2023-05-17T12:05:48;96778.25;;;13.07;58.52
54994;BME280;40891;47.242;8.648;2023-05-17T12:08:15;96779.13;;;13.04;60.18
54994;BME280;40891;47.242;8.648;2023-05-17T12:10:49;96778.56;;;13.09;59.82
54994;BME280;40891;47.242;8.648;2023-05-17T12:13:16;96775.69;;;12.91;58.32
54994;BME280;40891;47.242;8.648;2023-05-17T12:15:44;96774.22;;;12.77;58.74
54994;BME280;40891;47.242;8.648;2023-05-17T12:18:10;96772.75;;;12.94;59.32
54994;BME280;40891;47.242;8.648;2023-05-17T12:20:35;96774.28;;;12.86;58.49
54994;BME280;40891;47.242;8.648;2023-05-17T12:23:03;96768.84;;;12.92;60.00
54994;BME280;40891;47.242;8.648;2023-05-17T12:25:28;96770.72;;;12.95;60.48
54994;BME280;40891;47.242;8.648;2023-05-17T12:28:16;96774.81;;;13.03;60.30
54994;BME280;40891;47.242;8.648;2023-05-17T12:30:51;96764.44;;;13.04;59.92
54994;BME280;40891;47.242;8.648;2023-05-17T12:33:17;96766.63;;;13.09;59.41
54994;BME280;40891;47.242;8.648;2023-05-17T12:35:42;96766.84;;;13.23;60.81
54994;BME280;40891;47.242;8.648;2023-05-17T12:38:08;96769.31;;;13.21;61.09
54994;BME280;40891;47.242;8.648;2023-05-17T12:40:35;96768.53;;;13.21;60.90
54994;BME280;40891;47.242;8.648;2023-05-17T12:43:01;96764.22;;;13.29;59.16
54994;BME280;40891;47.242;8.648;2023-05-17T12:45:30;96758.19;;;13.39;56.30
54994;BME280;40891;47.242;8.648;2023-05-17T12:47:56;96748.44;;;13.44;57.86
54994;BME280;40891;47.242;8.648;2023-05-17T12:50:30;96753.44;;;13.58;57.72
54994;BME280;40891;47.242;8.648;2023-05-17T12:52:56;96752.66;;;13.57;57.30
54994;BME280;40891;47.242;8.648;2023-05-17T12:55:21;96740.56;;;13.70;56.37
54994;BME280;40891;47.242;8.648;2023-05-17T12:57:51;96750.03;;;13.72;55.80
54994;BME280;40891;47.242;8.648;2023-05-17T13:00:17;96751.75;;;13.79;56.02
54994;BME280;40891;47.242;8.648;2023-05-17T13:02:42;96742.09;;;13.80;54.86
54994;BME280;40891;47.242;8.648;2023-05-17T13:05:15;96743.97;;;13.92;55.18
54994;BME280;40891;47.242;8.648;2023-05-17T13:07:44;96751.44;;;13.86;56.57
54994;BME280;40891;47.242;8.648;2023-05-17T13:10:26;96741.16;;;13.92;55.61
54994;BME280;40891;47.242;8.648;2023-05-17T13:12:55;96732.03;;;14.00;57.02